Time;durP1;ratioP1;P1;durP2;ratioP2;P2;SDS_P1;SDS_P2;PMS_P1;PMS_P2;Temp;Humidity;BMP_temperature;BMP_pressure;BME280_temperature;BME280_humidity;BME280_pressure;Samples;Min_cycle;Max_cycle;Signal;HPM_P1;HPM_P2
2021/04/09 00:01:19;;;;;;;6.55;3.17;;;;;;;0.95;48.30;98328.53;10077673;29;20045;-78
2021/04/09 00:06:38;;;;;;;9.68;4.13;;;;;;;0.86;49.57;98327.59;10077212;29;20045;-78
2021/04/09 00:11:58;;;;;;;9.55;4.25;;;;;;;0.75;48.67;98322.22;10077960;29;20053;-78
2021/04/09 00:17:18;;;;;;;9.32;4.13;;;;;;;0.68;49.49;98331.06;10077522;29;20055;-78
2021/04/09 00:22:38;;;;;;;8.80;4.35;;;;;;;0.60;49.24;98318.38;10090074;29;20049;-77
2021/04/09 00:27:57;;;;;;;10.73;4.68;;;;;;;0.49;50.02;98313.75;10076689;29;20056;-77
2021/04/09 00:33:17;;;;;;;8.15;4.22;;;;;;;0.45;49.70;98322.25;10089778;29;20109;-78
2021/04/09 00:38:37;;;;;;;8.45;4.50;;;;;;;0.49;49.51;98302.75;10075940;29;20045;-78
2021/04/09 00:43:57;;;;;;;10.57;4.78;;;;;;;0.44;50.41;98304.28;10075134;29;20045;-77
2021/04/09 00:49:17;;;;;;;9.80;4.18;;;;;;;0.41;50.51;98296.31;10088387;29;20049;-77
2021/04/09 00:54:36;;;;;;;10.05;4.25;;;;;;;0.35;50.21;98298.38;10100641;29;20053;-78
2021/04/09 00:59:56;;;;;;;7.47;3.83;;;;;;;0.32;50.42;98285.66;10074852;29;20489;-77
2021/04/09 01:05:16;;;;;;;8.57;4.40;;;;;;;0.25;50.75;98290.44;10087235;29;20450;-77
2021/04/09 01:10:36;;;;;;;7.68;3.72;;;;;;;0.18;50.88;98287.50;10074398;29;20041;-77
2021/04/09 01:15:56;;;;;;;6.82;3.70;;;;;;;0.16;51.36;98284.53;10087088;29;20830;-78
2021/04/09 01:21:45;;;;;;;10.85;4.47;;;;;;;0.13;51.29;98282.81;10074374;29;20044;-78
2021/04/09 01:27:42;;;;;;;9.10;3.95;;;;;;;0.06;51.52;98267.63;10075214;29;20061;-77
2021/04/09 01:33:02;;;;;;;8.25;3.92;;;;;;;0.05;51.85;98270.91;10101177;29;20052;-77
2021/04/09 01:38:23;;;;;;;8.50;4.43;;;;;;;-0.03;51.82;98257.72;10074100;29;20049;-77
2021/04/09 01:43:43;;;;;;;7.43;4.05;;;;;;;-0.06;52.77;98256.00;10074872;29;20409;-78
2021/04/09 01:49:03;;;;;;;8.25;4.53;;;;;;;-0.02;52.19;98237.25;10074929;29;20101;-77
2021/04/09 01:54:23;;;;;;;9.48;4.47;;;;;;;0.00;52.27;98247.75;10073099;29;20122;-78
2021/04/09 01:59:43;;;;;;;7.85;4.25;;;;;;;-0.02;52.49;98239.25;10073810;29;20390;-77
2021/04/09 02:05:03;;;;;;;9.00;5.10;;;;;;;-0.03;52.14;98243.25;10086439;29;20049;-77
2021/04/09 02:10:23;;;;;;;10.23;4.35;;;;;;;-0.03;52.56;98232.28;10074358;29;20477;-78
2021/04/09 02:15:43;;;;;;;9.70;4.93;;;;;;;-0.04;52.28;98230.78;10074164;29;20504;-77
2021/04/09 02:21:03;;;;;;;8.18;4.60;;;;;;;-0.08;52.71;98224.84;10074338;29;20041;-77
2021/04/09 02:26:22;;;;;;;10.82;4.63;;;;;;;-0.15;52.50;98225.38;10073163;29;20053;-77
2021/04/09 02:31:42;;;;;;;11.30;5.25;;;;;;;-0.16;53.13;98223.91;10072986;29;20491;-77
2021/04/09 02:37:02;;;;;;;8.50;4.05;;;;;;;-0.17;53.64;98223.16;10072546;29;20045;-77
2021/04/09 02:42:23;;;;;;;9.93;5.00;;;;;;;-0.19;53.80;98202.94;10074465;29;20056;-77
2021/04/09 02:47:43;;;;;;;9.88;4.50;;;;;;;-0.24;53.92;98201.00;10073132;29;20056;-76
2021/04/09 02:53:07;;;;;;;13.23;5.00;;;;;;;-0.27;54.79;98202.03;10074191;29;20053;-78
2021/04/09 02:58:27;;;;;;;11.00;4.80;;;;;;;-0.29;54.13;98210.75;10073704;29;20502;-77
2021/04/09 03:03:46;;;;;;;9.15;4.35;;;;;;;-0.37;54.35;98194.13;10073982;29;20108;-77
2021/04/09 03:09:06;;;;;;;7.45;3.90;;;;;;;-0.35;54.83;98193.63;10080580;29;20063;-77
2021/04/09 03:14:27;;;;;;;8.52;4.20;;;;;;;-0.36;54.32;98189.38;10079590;29;20049;-77
2021/04/09 03:19:46;;;;;;;9.07;4.53;;;;;;;-0.36;55.37;98187.38;10079352;29;20093;-77
2021/04/09 03:25:08;;;;;;;9.73;4.18;;;;;;;-0.38;54.97;98176.19;10099114;29;20413;-77
2021/04/09 03:30:28;;;;;;;8.93;4.13;;;;;;;-0.40;54.58;98173.19;10130220;29;20055;-77
2021/04/09 03:35:48;;;;;;;7.60;4.40;;;;;;;-0.40;54.70;98175.19;10103794;29;20041;-77
2021/04/09 03:41:08;;;;;;;8.10;4.10;;;;;;;-0.41;55.19;98165.47;10091163;29;20036;-78
2021/04/09 03:46:28;;;;;;;7.20;4.03;;;;;;;-0.41;55.24;98155.25;10115606;29;20044;-78
2021/04/09 03:51:47;;;;;;;6.97;3.80;;;;;;;-0.41;55.72;98154.50;10102730;29;20366;-77
2021/04/09 03:57:07;;;;;;;9.32;4.28;;;;;;;-0.47;55.83;98151.81;10088610;29;20051;-79
2021/04/09 04:02:27;;;;;;;9.27;3.50;;;;;;;-0.43;55.04;98167.97;10103224;29;20051;-77
2021/04/09 04:07:47;;;;;;;6.90;4.13;;;;;;;-0.41;55.82;98157.97;10102971;29;20048;-76
2021/04/09 04:13:07;;;;;;;6.20;3.30;;;;;;;-0.33;54.87;98144.47;10115867;29;20044;-76
2021/04/09 04:18:27;;;;;;;8.13;3.70;;;;;;;-0.34;55.47;98145.72;10115024;29;20396;-76
2021/04/09 04:23:48;;;;;;;8.90;3.70;;;;;;;-0.35;56.46;98152.47;10089533;29;20049;-77
2021/04/09 04:29:07;;;;;;;7.22;3.40;;;;;;;-0.26;55.56;98149.41;10089903;29;20056;-79
2021/04/09 04:34:27;;;;;;;8.18;3.60;;;;;;;-0.17;55.90;98148.34;10084068;29;20501;-79
2021/04/09 04:39:47;;;;;;;7.28;3.95;;;;;;;-0.01;55.27;98150.91;10092098;29;20055;-78
2021/04/09 04:45:08;;;;;;;7.55;3.60;;;;;;;0.11;55.18;98146.06;10111859;29;20049;-79
2021/04/09 04:50:56;;;;;;;8.38;3.78;;;;;;;0.26;55.26;98140.91;10118357;29;20135;-79
2021/04/09 04:56:16;;;;;;;8.10;4.10;;;;;;;0.54;55.04;98139.84;10072520;29;20055;-78
2021/04/09 05:01:36;;;;;;;6.35;4.25;;;;;;;0.84;54.48;98151.47;10090047;29;20052;-78
2021/04/09 05:06:56;;;;;;;11.95;4.82;;;;;;;1.09;53.98;98154.16;10096196;29;20407;-79
2021/04/09 05:12:15;;;;;;;6.65;4.07;;;;;;;1.45;53.36;98151.91;10122352;29;20126;-79
2021/04/09 05:17:35;;;;;;;7.25;4.03;;;;;;;2.07;52.63;98154.41;10109025;29;20044;-78
2021/04/09 05:22:55;;;;;;;7.85;4.32;;;;;;;2.59;52.10;98141.91;10081540;29;20041;-78
2021/04/09 05:28:15;;;;;;;6.78;4.28;;;;;;;3.50;51.02;98139.47;10078485;29;20049;-79
2021/04/09 05:33:35;;;;;;;8.77;4.25;;;;;;;6.67;47.55;98134.69;10080145;29;20045;-78
2021/04/09 05:38:54;;;;;;;7.38;4.85;;;;;;;11.87;44.30;98135.03;10095942;29;20063;-79
2021/04/09 05:44:14;;;;;;;7.88;4.45;;;;;;;15.57;38.31;98146.53;10109195;29;20105;-79
2021/04/09 05:49:34;;;;;;;5.28;4.00;;;;;;;17.36;34.04;98135.88;10083039;29;20492;-78
2021/04/09 05:54:54;;;;;;;6.45;3.63;;;;;;;20.78;27.47;98132.06;10095160;29;20059;-78
2021/04/09 06:00:14;;;;;;;5.93;3.10;;;;;;;24.48;23.98;98136.13;10106724;29;20044;-77
2021/04/09 06:05:34;;;;;;;8.57;3.20;;;;;;;27.24;19.45;98140.59;10108037;29;20406;-77
2021/04/09 06:10:54;;;;;;;5.00;3.00;;;;;;;29.33;15.88;98132.78;10095314;29;20049;-75
2021/04/09 06:16:14;;;;;;;5.82;3.15;;;;;;;29.43;13.28;98119.81;10108271;29;20374;-75
2021/04/09 06:21:35;;;;;;;6.70;3.38;;;;;;;30.20;11.48;98119.63;10121028;29;20104;-76
2021/04/09 06:26:55;;;;;;;;;;;;;;;29.89;10.98;98127.66;10094799;29;20045;-76
2021/04/09 06:32:14;;;;;;;3.53;3.05;;;;;;;29.46;10.78;98113.38;10094984;29;19924;-77
2021/04/09 06:37:34;;;;;;;6.00;3.30;;;;;;;27.72;11.00;98105.13;10094809;29;20073;-75
2021/04/09 06:42:57;;;;;;;4.32;3.20;;;;;;;26.06;11.95;98097.19;10101566;29;20056;-74
2021/04/09 06:48:17;;;;;;;5.32;3.97;;;;;;;26.06;12.33;98093.63;10114745;29;20041;-75
2021/04/09 06:53:44;;;;;;;5.85;3.40;;;;;;;26.76;11.80;98099.38;10139066;29;20112;-74
2021/04/09 06:59:05;;;;;;;6.40;3.25;;;;;;;28.15;11.33;98085.91;10115264;29;20120;-79
2021/04/09 07:04:24;;;;;;;5.47;3.97;;;;;;;24.59;12.39;98077.13;10114531;29;20041;-79
2021/04/09 07:09:45;;;;;;;7.05;4.03;;;;;;;24.34;13.42;98084.53;10088085;29;20048;-77
2021/04/09 07:15:06;;;;;;;5.47;3.90;;;;;;;25.43;13.56;98067.03;10114176;29;20044;-76
2021/04/09 07:20:31;;;;;;;5.45;3.85;;;;;;;27.47;11.82;98082.00;10101303;29;20052;-79
2021/04/09 07:25:51;;;;;;;7.65;3.80;;;;;;;29.51;10.77;98068.78;10101083;29;20044;-78
2021/04/09 07:31:11;;;;;;;5.10;3.92;;;;;;;32.52;9.25;98059.78;10113700;29;20400;-78
2021/04/09 07:36:31;;;;;;;3.95;3.28;;;;;;;36.92;7.48;98069.75;10113166;29;20357;-78
2021/04/09 07:42:11;;;;;;;6.60;3.22;;;;;;;38.19;5.48;98052.13;10100170;29;20049;-78
2021/04/09 07:47:31;;;;;;;7.18;3.05;;;;;;;37.04;5.64;98030.78;10100856;29;20092;-77
2021/04/09 07:52:51;;;;;;;5.30;2.90;;;;;;;35.23;6.83;98048.53;10109876;29;20052;-76
2021/04/09 07:58:15;;;;;;;6.20;3.47;;;;;;;39.04;5.42;98047.28;10099284;29;20045;-79
2021/04/09 08:03:39;;;;;;;4.75;3.45;;;;;;;41.08;4.11;98032.78;10099052;29;20413;-77
2021/04/09 08:08:58;;;;;;;6.57;2.85;;;;;;;41.01;4.04;98028.75;10099082;29;20045;-76
2021/04/09 08:14:24;;;;;;;4.45;2.90;;;;;;;41.34;4.07;98027.81;10111730;29;20051;-78
2021/04/09 08:19:46;;;;;;;4.53;2.90;;;;;;;41.84;3.58;98017.84;10098646;29;20059;-77
2021/04/09 08:25:07;;;;;;;3.63;2.67;;;;;;;43.95;2.68;98017.25;10098661;29;20127;-77
2021/04/09 08:30:27;;;;;;;4.03;2.42;;;;;;;47.21;2.16;98006.31;10098172;29;20088;-76
2021/04/09 08:35:47;;;;;;;4.93;2.55;;;;;;;45.17;1.84;98013.72;10098347;29;20052;-76
2021/04/09 08:41:07;;;;;;;3.22;2.40;;;;;;;45.80;2.29;98009.34;10097880;29;20072;-77
2021/04/09 08:46:27;;;;;;;6.15;2.55;;;;;;;44.68;2.28;98002.97;10097547;29;20044;-75
2021/04/09 08:51:47;;;;;;;4.28;2.90;;;;;;;45.34;2.32;98000.00;10097218;29;20699;-77
2021/04/09 08:57:07;;;;;;;4.22;2.92;;;;;;;45.86;1.83;97994.19;10097164;29;20052;-76
2021/04/09 09:02:28;;;;;;;6.22;3.30;;;;;;;43.92;2.42;97986.56;10136364;29;20049;-75
2021/04/09 09:07:56;;;;;;;4.65;3.00;;;;;;;46.47;1.84;97980.91;10109853;29;20044;-76
2021/04/09 09:13:23;;;;;;;4.40;2.80;;;;;;;48.11;1.46;97972.59;10097460;29;20056;-74
2021/04/09 09:18:50;;;;;;;6.03;2.75;;;;;;;49.55;0.75;97978.19;10109653;29;20048;-75
2021/04/09 09:24:19;;;;;;;4.30;2.80;;;;;;;48.36;0.86;97966.09;10110095;29;20552;-75
2021/04/09 09:29:45;;;;;;;4.75;3.13;;;;;;;46.67;1.20;97946.88;10096099;29;20055;-76
2021/04/09 09:35:06;;;;;;;4.45;3.10;;;;;;;41.67;3.06;97933.03;10095859;29;20049;-75
2021/04/09 09:40:41;;;;;;;7.97;3.00;;;;;;;41.41;2.66;97929.34;10122231;29;20056;-75
2021/04/09 09:46:03;;;;;;;4.93;3.08;;;;;;;36.67;4.30;97925.16;10108452;29;20048;-75
2021/04/09 09:51:28;;;;;;;5.93;3.67;;;;;;;34.03;6.17;97909.44;10095756;29;20049;-75
2021/04/09 09:56:48;;;;;;;5.15;3.50;;;;;;;35.40;5.78;97906.63;10095310;29;20045;-74
2021/04/09 10:02:07;;;;;;;5.20;3.33;;;;;;;32.65;6.55;97892.72;10108027;29;20116;-75
2021/04/09 10:07:28;;;;;;;6.27;3.40;;;;;;;31.29;7.75;97904.16;10108096;29;20053;-79
2021/04/09 10:12:47;;;;;;;5.00;3.22;;;;;;;36.47;5.63;97881.50;10094188;29;20048;-76
2021/04/09 10:18:08;;;;;;;6.60;3.67;;;;;;;37.69;5.14;97889.44;10102670;29;20053;-75
2021/04/09 10:23:27;;;;;;;4.63;3.03;;;;;;;37.86;5.16;97877.19;10102923;29;20096;-75
2021/04/09 10:28:47;;;;;;;8.20;3.03;;;;;;;37.93;4.59;97876.16;10102608;29;20405;-76
2021/04/09 10:34:08;;;;;;;4.07;2.90;;;;;;;37.16;5.16;97867.47;10115270;29;20081;-76
2021/04/09 10:39:28;;;;;;;5.38;3.47;;;;;;;35.04;5.67;97859.78;10114858;29;20055;-79
2021/04/09 10:44:48;;;;;;;8.48;3.35;;;;;;;31.95;7.09;97852.03;10101796;29;20049;-77
2021/04/09 10:50:08;;;;;;;4.30;3.23;;;;;;;29.45;8.84;97835.91;10088491;29;20044;-76
2021/04/09 10:55:31;;;;;;;8.70;3.60;;;;;;;26.47;10.38;97829.34;10114871;29;20049;-74
2021/04/09 11:00:51;;;;;;;4.63;3.63;;;;;;;26.13;10.84;97811.94;10112630;29;20037;-76
2021/04/09 11:06:13;;;;;;;6.35;3.50;;;;;;;24.91;11.61;97814.31;10084137;29;20040;-77
2021/04/09 11:11:39;;;;;;;6.95;3.47;;;;;;;25.01;11.81;97805.13;10096094;29;20473;-79
2021/04/09 11:16:59;;;;;;;7.35;3.63;;;;;;;23.94;12.51;97802.97;10111258;29;20571;-77
2021/04/09 11:22:18;;;;;;;6.10;3.85;;;;;;;22.93;13.40;97795.44;10110312;29;20041;-76
2021/04/09 11:27:41;;;;;;;5.13;3.78;;;;;;;21.79;14.25;97785.09;10084343;29;20048;-74
2021/04/09 11:33:01;;;;;;;6.43;4.07;;;;;;;20.40;15.13;97794.06;10094583;29;20048;-75
2021/04/09 11:38:22;;;;;;;5.15;3.33;;;;;;;20.28;15.72;97772.50;10091908;29;20060;-74
2021/04/09 11:43:41;;;;;;;4.97;3.08;;;;;;;20.45;15.69;97765.19;10094986;29;20057;-76
2021/04/09 11:49:03;;;;;;;5.03;3.30;;;;;;;20.98;15.07;97763.84;10083246;29;20044;-76
2021/04/09 11:54:31;;;;;;;4.47;2.88;;;;;;;20.96;14.97;97749.59;10086529;29;20108;-76
2021/04/09 11:59:51;;;;;;;5.10;3.25;;;;;;;20.82;15.28;97746.38;10088201;29;20053;-76
2021/04/09 12:05:17;;;;;;;4.22;3.20;;;;;;;20.60;15.15;97755.00;10094093;29;20044;-77
2021/04/09 12:10:37;;;;;;;3.88;2.47;;;;;;;19.73;15.70;97753.81;10121217;29;20445;-76
2021/04/09 12:15:57;;;;;;;3.80;3.05;;;;;;;19.32;16.15;97736.88;10079585;29;20048;-76
2021/04/09 12:21:17;;;;;;;5.55;3.75;;;;;;;18.92;16.86;97748.25;10082135;29;20044;-75
2021/04/09 12:26:37;;;;;;;7.78;3.88;;;;;;;18.52;17.92;97697.34;10081829;29;20040;-77
2021/04/09 12:31:57;;;;;;;4.72;3.35;;;;;;;18.96;17.17;97697.47;10081525;29;20044;-78
2021/04/09 12:37:18;;;;;;;4.57;3.28;;;;;;;18.83;17.43;97681.47;10097754;29;20080;-76
2021/04/09 12:42:38;;;;;;;5.15;3.85;;;;;;;18.52;18.07;97686.03;10110559;29;20044;-76
2021/04/09 12:47:58;;;;;;;4.55;3.22;;;;;;;18.40;18.15;97694.06;10082160;29;20048;-75
2021/04/09 12:53:18;;;;;;;7.68;3.60;;;;;;;18.29;18.37;97669.66;10087327;29;20060;-77
2021/04/09 12:58:37;;;;;;;4.13;3.25;;;;;;;18.30;18.06;97666.19;10109984;29;20146;-75
2021/04/09 13:03:57;;;;;;;5.28;3.17;;;;;;;18.41;18.01;97644.66;10083847;29;20048;-76
2021/04/09 13:09:18;;;;;;;3.85;2.95;;;;;;;18.58;18.10;97631.81;10082588;29;20067;-78
2021/04/09 13:14:39;;;;;;;5.47;3.08;;;;;;;18.52;18.39;97623.84;10082770;29;20044;-76
2021/04/09 13:19:58;;;;;;;5.20;3.50;;;;;;;18.13;18.57;97626.69;10108495;29;20052;-75
2021/04/09 13:25:18;;;;;;;4.78;3.05;;;;;;;18.32;18.61;97600.53;10083620;29;20045;-76
2021/04/09 13:30:39;;;;;;;3.50;2.97;;;;;;;18.44;18.49;97588.97;10092271;29;20060;-78
2021/04/09 13:35:59;;;;;;;4.43;3.25;;;;;;;18.50;18.64;97583.50;10094574;29;20409;-76
2021/04/09 13:41:19;;;;;;;6.10;3.50;;;;;;;18.23;18.36;97576.22;10095846;29;20048;-76
2021/04/09 13:46:39;;;;;;;3.83;2.80;;;;;;;18.53;18.58;97568.78;10057110;29;20048;-76
2021/04/09 13:51:59;;;;;;;6.10;2.97;;;;;;;18.76;18.54;97566.72;10103312;29;20057;-76
2021/04/09 13:57:19;;;;;;;4.68;2.50;;;;;;;18.83;18.05;97559.91;10121278;29;20062;-76
2021/04/09 14:02:39;;;;;;;7.50;3.15;;;;;;;18.74;18.15;97552.53;10107331;29;20044;-76
2021/04/09 14:07:59;;;;;;;4.95;3.20;;;;;;;18.36;18.46;97552.66;10107114;29;20049;-77
2021/04/09 14:13:21;;;;;;;4.10;2.50;;;;;;;18.25;18.42;97556.53;10092325;29;20060;-76
2021/04/09 14:18:40;;;;;;;4.72;2.35;;;;;;;18.08;18.53;97540.38;10095202;29;20053;-77
2021/04/09 14:24:00;;;;;;;3.50;2.20;;;;;;;18.01;18.25;97551.47;10081946;29;20049;-75
2021/04/09 14:29:20;;;;;;;3.08;2.10;;;;;;;17.73;18.30;97553.25;10107436;29;20055;-78
2021/04/09 14:34:39;;;;;;;3.13;1.42;;;;;;;17.35;18.05;97547.59;10108738;29;20066;-78
2021/04/09 14:39:59;;;;;;;2.97;1.35;;;;;;;17.18;17.29;97542.75;10109370;29;20056;-76
2021/04/09 14:45:23;;;;;;;4.72;1.55;;;;;;;17.07;17.39;97535.25;10095609;29;20051;-76
2021/04/09 14:50:42;;;;;;;3.00;1.38;;;;;;;17.04;16.68;97542.19;10108197;29;20060;-76
2021/04/09 14:56:04;;;;;;;2.83;1.38;;;;;;;17.16;16.96;97548.28;10108236;29;20084;-77
2021/04/09 15:01:24;;;;;;;3.88;1.40;;;;;;;17.21;17.32;97547.09;10111453;29;20036;-76
2021/04/09 15:06:45;;;;;;;3.38;1.60;;;;;;;17.12;17.42;97542.50;10102480;29;20048;-77
2021/04/09 15:12:06;;;;;;;3.60;1.27;;;;;;;16.76;17.95;97548.13;10129376;29;20493;-77
2021/04/09 15:17:29;;;;;;;4.30;1.70;;;;;;;16.65;18.24;97549.06;10115824;29;20079;-77
2021/04/09 15:22:49;;;;;;;4.50;2.03;;;;;;;16.36;17.36;97574.63;10104335;29;20048;-76
2021/04/09 15:28:09;;;;;;;3.08;1.80;;;;;;;15.96;17.60;97554.63;10103325;29;20399;-77
2021/04/09 15:33:29;;;;;;;6.57;2.22;;;;;;;16.00;17.91;97555.53;10089672;29;20056;-77
2021/04/09 15:38:49;;;;;;;5.25;2.35;;;;;;;15.81;18.24;97544.84;10104042;29;20048;-76
2021/04/09 15:44:09;;;;;;;5.50;2.13;;;;;;;15.68;18.42;97557.66;10127237;29;20048;-75
2021/04/09 15:49:29;;;;;;;3.63;1.98;;;;;;;15.57;18.82;97547.28;10100889;29;20469;-79
2021/04/09 15:54:50;;;;;;;7.00;2.70;;;;;;;15.55;19.12;97540.84;10101542;29;20056;-79
2021/04/09 16:00:10;;;;;;;5.88;2.70;;;;;;;15.38;19.33;97547.81;10100757;29;20053;-72
2021/04/09 16:05:30;;;;;;;4.60;2.45;;;;;;;15.32;19.54;97539.09;10112953;29;20052;-76
2021/04/09 16:10:50;;;;;;;6.22;2.90;;;;;;;15.36;20.37;97539.28;10100797;29;20048;-75
2021/04/09 16:16:10;;;;;;;4.35;2.50;;;;;;;15.23;20.06;97540.09;10099377;29;20044;-75
2021/04/09 16:21:29;;;;;;;9.00;3.20;;;;;;;15.12;20.94;97539.63;10112728;29;20057;-77
2021/04/09 16:26:49;;;;;;;6.47;3.15;;;;;;;14.91;20.39;97542.13;10114445;29;20044;-76
2021/04/09 16:32:09;;;;;;;6.07;2.70;;;;;;;14.79;21.32;97539.47;10115032;29;20068;-79
2021/04/09 16:37:29;;;;;;;8.15;3.05;;;;;;;14.60;21.07;97537.84;10101104;29;20055;-77
2021/04/09 16:42:48;;;;;;;7.35;3.88;;;;;;;14.45;21.17;97539.22;10085534;29;20473;-74
2021/04/09 16:48:09;;;;;;;6.75;3.88;;;;;;;14.31;21.88;97530.09;10125583;29;20051;-75
2021/04/09 16:53:29;;;;;;;8.00;4.00;;;;;;;14.21;21.50;97529.59;10086784;29;20053;-75
2021/04/09 16:58:49;;;;;;;5.40;3.58;;;;;;;14.16;22.13;97527.91;10112159;29;20040;-76
2021/04/09 17:04:09;;;;;;;7.22;3.25;;;;;;;13.97;22.63;97521.38;10088013;29;20045;-79
2021/04/09 17:09:29;;;;;;;5.50;3.72;;;;;;;13.90;22.30;97522.47;10117610;29;20044;-79
2021/04/09 17:14:49;;;;;;;5.97;2.80;;;;;;;13.69;22.50;97531.16;10098122;29;20040;-75
2021/04/09 17:20:13;;;;;;;6.88;2.97;;;;;;;13.43;22.75;97520.03;10085491;29;20048;-76
2021/04/09 17:25:33;;;;;;;7.07;3.22;;;;;;;13.17;23.21;97518.59;10112737;29;20044;-79
2021/04/09 17:30:53;;;;;;;4.07;2.47;;;;;;;12.95;23.16;97509.72;10063370;29;20048;-78
2021/04/09 17:36:13;;;;;;;5.18;2.75;;;;;;;12.76;23.52;97510.81;10087611;29;20041;-79
2021/04/09 17:41:33;;;;;;;9.13;4.50;;;;;;;12.58;23.62;97515.38;10087222;29;20420;-77
2021/04/09 17:46:53;;;;;;;8.95;4.63;;;;;;;12.39;23.84;97515.69;10073024;29;20109;-77
2021/04/09 17:52:13;;;;;;;9.38;4.28;;;;;;;12.21;23.96;97521.72;10074378;29;20080;-79
2021/04/09 17:57:33;;;;;;;7.97;4.72;;;;;;;12.07;24.59;97531.38;10109267;29;20040;-78
2021/04/09 18:02:52;;;;;;;10.52;5.18;;;;;;;11.94;24.48;97530.63;10103103;29;20045;-77
2021/04/09 18:08:12;;;;;;;11.43;5.15;;;;;;;11.86;24.83;97532.22;10110833;29;20070;-79
2021/04/09 18:13:32;;;;;;;11.55;5.72;;;;;;;11.77;24.92;97528.19;10096579;29;20048;-76
2021/04/09 18:18:52;;;;;;;18.15;8.68;;;;;;;11.65;25.02;97519.09;10107463;29;20115;-78
2021/04/09 18:24:12;;;;;;;13.52;5.75;;;;;;;11.53;25.78;97530.28;10107639;29;20052;-77
2021/04/09 18:29:32;;;;;;;11.65;5.45;;;;;;;11.37;26.02;97520.91;10096273;29;20052;-78
2021/04/09 18:34:52;;;;;;;11.27;6.45;;;;;;;11.27;26.01;97515.44;10122795;29;20045;-78
2021/04/09 18:40:12;;;;;;;11.20;5.70;;;;;;;11.17;26.30;97518.34;10091240;29;20045;-77
2021/04/09 18:45:32;;;;;;;7.82;4.70;;;;;;;11.08;26.62;97521.97;10091523;29;20044;-79
2021/04/09 18:50:52;;;;;;;9.02;4.85;;;;;;;10.99;26.45;97520.00;10117112;29;20407;-78
2021/04/09 18:56:11;;;;;;;8.75;4.65;;;;;;;10.94;27.03;97523.88;10104187;29;20045;-78
2021/04/09 19:01:32;;;;;;;9.05;3.95;;;;;;;10.85;26.86;97527.50;10116235;29;20404;-79
2021/04/09 19:06:56;;;;;;;9.63;4.85;;;;;;;10.82;27.07;97525.94;10129293;29;20044;-79
2021/04/09 19:12:16;;;;;;;10.70;5.22;;;;;;;10.76;27.47;97525.53;10116573;29;20048;-79
2021/04/09 19:17:36;;;;;;;11.13;6.97;;;;;;;10.69;27.43;97526.47;10103369;29;20040;-82
2021/04/09 19:22:57;;;;;;;10.27;5.85;;;;;;;10.59;27.33;97524.50;10101192;29;20049;-79
2021/04/09 19:28:17;;;;;;;11.30;5.47;;;;;;;10.48;28.01;97527.97;10098704;29;20097;-78
2021/04/09 19:33:37;;;;;;;14.68;6.90;;;;;;;10.30;28.88;97524.00;10100380;29;20412;-80
2021/04/09 19:38:57;;;;;;;10.82;5.43;;;;;;;10.12;28.64;97528.38;10113888;29;20052;-78
2021/04/09 19:44:17;;;;;;;11.52;5.53;;;;;;;10.00;28.51;97528.28;10114758;29;20048;-78
2021/04/09 19:49:37;;;;;;;14.65;5.82;;;;;;;9.92;29.00;97522.19;10089202;29;20489;-79
2021/04/09 19:54:57;;;;;;;10.43;5.30;;;;;;;9.87;28.85;97521.19;10101302;29;20056;-78
2021/04/09 20:00:17;;;;;;;9.23;4.95;;;;;;;9.89;28.97;97524.13;10114253;29;20477;-78
2021/04/09 20:05:38;;;;;;;7.88;4.47;;;;;;;9.86;29.61;97522.53;10112516;29;20381;-74
2021/04/09 20:10:58;;;;;;;8.98;4.10;;;;;;;9.79;29.57;97526.22;10124271;29;20116;-77
2021/04/09 20:16:17;;;;;;;8.98;4.10;;;;;;;9.72;29.96;97532.72;10099228;29;20052;-75
2021/04/09 20:21:37;;;;;;;8.60;3.92;;;;;;;9.67;30.12;97526.16;10073256;29;19927;-75
2021/04/09 20:26:57;;;;;;;7.90;4.00;;;;;;;9.64;30.56;97529.38;10112043;29;20068;-76
2021/04/09 20:32:20;;;;;;;8.00;4.13;;;;;;;9.58;30.58;97513.00;10124597;29;20046;-76
2021/04/09 20:37:40;;;;;;;7.32;4.30;;;;;;;9.53;30.71;97522.38;10098291;29;20067;-74
2021/04/09 20:42:59;;;;;;;8.48;4.35;;;;;;;9.48;30.72;97525.50;10124297;29;20055;-75
2021/04/09 20:48:19;;;;;;;7.05;4.05;;;;;;;9.42;30.84;97534.91;10138400;29;20460;-75
2021/04/09 20:53:39;;;;;;;9.40;3.95;;;;;;;9.37;31.11;97543.59;10072389;29;20057;-76
2021/04/09 20:58:59;;;;;;;6.68;4.07;;;;;;;9.30;31.29;97539.66;10084276;29;20056;-76
2021/04/09 21:04:19;;;;;;;7.78;4.47;;;;;;;9.26;31.41;97542.13;10110331;29;20041;-76
2021/04/09 21:09:39;;;;;;;23.23;14.40;;;;;;;9.20;31.87;97538.94;10110139;29;20511;-76
2021/04/09 21:14:59;;;;;;;7.38;4.32;;;;;;;9.18;32.25;97549.94;10084360;29;20124;-75
2021/04/09 21:20:19;;;;;;;8.50;3.90;;;;;;;9.16;32.43;97549.78;10109859;29;20049;-75
2021/04/09 21:25:38;;;;;;;10.30;6.18;;;;;;;9.15;32.52;97551.13;10109490;29;20071;-75
2021/04/09 21:30:58;;;;;;;6.63;4.03;;;;;;;9.12;32.41;97555.09;10109542;29;20480;-75
2021/04/09 21:36:18;;;;;;;9.02;4.10;;;;;;;9.15;32.76;97551.84;10096453;29;20385;-75
2021/04/09 21:41:38;;;;;;;6.50;3.88;;;;;;;9.16;33.65;97547.00;10083470;29;20044;-75
2021/04/09 21:46:58;;;;;;;9.23;3.92;;;;;;;9.15;33.25;97545.53;10083271;29;20049;-75
2021/04/09 21:52:18;;;;;;;9.20;4.28;;;;;;;9.14;33.26;97555.97;10121976;29;20057;-75
2021/04/09 21:57:38;;;;;;;9.52;4.60;;;;;;;9.14;32.95;97552.44;10108527;29;20045;-74
2021/04/09 22:02:58;;;;;;;6.97;4.78;;;;;;;9.15;33.47;97553.91;10121647;29;20040;-76
2021/04/09 22:08:19;;;;;;;10.18;4.95;;;;;;;9.15;33.13;97556.69;10108379;29;20049;-75
2021/04/09 22:13:38;;;;;;;8.45;4.55;;;;;;;9.09;33.47;97553.50;10107738;29;20055;-76
2021/04/09 22:18:58;;;;;;;8.50;4.50;;;;;;;9.00;33.51;97551.47;10095574;29;20378;-74
2021/04/09 22:24:18;;;;;;;8.93;4.47;;;;;;;8.98;34.12;97543.69;10095450;29;20045;-74
2021/04/09 22:29:38;;;;;;;5.75;4.05;;;;;;;8.92;33.87;97550.88;10082406;29;20060;-75
2021/04/09 22:34:58;;;;;;;7.05;4.47;;;;;;;8.82;34.42;97540.50;10095136;29;20052;-75
2021/04/09 22:40:18;;;;;;;7.57;4.70;;;;;;;8.72;34.00;97537.00;10107919;29;20519;-75
2021/04/09 22:45:38;;;;;;;8.27;5.25;;;;;;;8.64;34.67;97544.75;10082019;29;20052;-75
2021/04/09 22:50:58;;;;;;;6.45;4.30;;;;;;;8.55;34.93;97549.00;10094680;29;20432;-76
2021/04/09 22:56:18;;;;;;;6.68;4.60;;;;;;;8.48;35.12;97543.59;10094843;29;20075;-75
2021/04/09 23:01:38;;;;;;;8.38;4.32;;;;;;;8.41;35.10;97530.59;10094647;29;20048;-74
2021/04/09 23:06:57;;;;;;;12.25;4.95;;;;;;;8.35;35.55;97530.88;10107718;29;20048;-75
2021/04/09 23:12:17;;;;;;;8.73;4.97;;;;;;;8.29;35.25;97539.47;10107467;29;20533;-76
2021/04/09 23:17:37;;;;;;;9.20;4.32;;;;;;;8.20;35.79;97537.44;10094182;29;20049;-76
2021/04/09 23:23:00;;;;;;;8.75;4.63;;;;;;;8.14;35.79;97527.91;10085990;29;20079;-74
2021/04/09 23:28:19;;;;;;;8.95;4.85;;;;;;;8.07;35.91;97528.75;10101631;29;20412;-74
2021/04/09 23:33:39;;;;;;;7.70;5.03;;;;;;;8.01;36.19;97526.28;10126996;29;20128;-76
2021/04/09 23:38:59;;;;;;;7.93;4.88;;;;;;;7.93;36.43;97526.41;10113404;29;20061;-75
2021/04/09 23:44:19;;;;;;;8.75;4.90;;;;;;;7.88;36.53;97518.34;10126550;29;20045;-75
2021/04/09 23:49:39;;;;;;;9.15;5.28;;;;;;;7.81;36.88;97513.66;10087020;29;20055;-76
2021/04/09 23:54:58;;;;;;;8.88;5.30;;;;;;;7.73;37.09;97516.56;10087243;29;20053;-75
